Tipton, Missouri
Current Conditions -  °F | °C
As of 4:15 AM on Monday 22 Dec 2014 (Local Time) from KVER Reporting Station
Overcast Overcast  
Wind Chill: 42°   Ceiling: 3100
Heat Index: 42°   Visibility: 10mi
Dew Point: 37°   Wind: 0mph
Humidity: 83%   Direction: NA
Pressure: 29.72"   Gusts: NA
Location:  38.66°N, 92.78°W
Report Text: KVER 221015Z AUTO 00000KT 10SM BKN031 OVC037 05/03 A2972 RMK AO2 T00530027
Loading
Personal Weather Stations






























Interactive Weather Map New forecast layout! Learn more

10-Day Weather Forecast

Advertisements
Track Severe Weather on mobile